VLG2511 LECO-LEBB

Flight info

Callsign VLG2511
Flight time 0h 43m
Altitude 32000
Route ROXER DCT LASKU M190 SNR
Aircraft A320/M-SDE3FGHIRWY/LB1

Departure

Time 2026-04-21 17:01
Airport A Coruña Airport (LECO)

Arrival

Time 2026-04-21 17:44
Airport Bilbao Airport (LEBB)
Time Latitude Longitude Altitude Speed Heading
2026-04-21 16:41 43.30249 -8.38014 335 ft 0 kts 301°
2026-04-21 16:53 43.30241 -8.37996 336 ft 4 kts 310°
2026-04-21 16:53 43.30221 -8.37974 335 ft 4 kts 346°
2026-04-21 16:54 43.30200 -8.37975 340 ft 1 kts 31°
2026-04-21 16:54 43.30196 -8.37979 340 ft 0 kts 31°
2026-04-21 16:56 43.30218 -8.37960 338 ft 11 kts 31°
2026-04-21 16:56 43.30271 -8.37885 339 ft 11 kts 86°
2026-04-21 16:57 43.30242 -8.37797 338 ft 12 kts 120°
2026-04-21 16:57 43.30263 -8.37680 338 ft 15 kts 35°
2026-04-21 16:57 43.30392 -8.37572 336 ft 27 kts 30°
2026-04-21 16:57 43.30557 -8.37443 345 ft 28 kts 29°
2026-04-21 16:58 43.30719 -8.37303 349 ft 28 kts 30°
2026-04-21 16:58 43.30889 -8.37192 343 ft 26 kts
2026-04-21 16:58 43.30982 -8.37142 339 ft 10 kts 79°
2026-04-21 16:58 43.30941 -8.37125 352 ft 7 kts 211°
2026-04-21 16:59 43.30883 -8.37172 352 ft 0 kts 211°
2026-04-21 17:00 43.30870 -8.37183 356 ft 19 kts 211°
2026-04-21 17:00 43.30671 -8.37346 349 ft 77 kts 211°
2026-04-21 17:00 43.29731 -8.38126 405 ft 150 kts 214°
2026-04-21 17:01 43.28862 -8.38847 1086 ft 146 kts 207°
2026-04-21 17:01 43.27890 -8.39241 1730 ft 152 kts 189°
2026-04-21 17:01 43.26748 -8.39127 2108 ft 179 kts 170°
2026-04-21 17:01 43.25554 -8.38260 2590 ft 207 kts 143°
2026-04-21 17:02 43.24757 -8.36591 3621 ft 214 kts 115°
2026-04-21 17:02 43.24612 -8.34551 4723 ft 219 kts 88°
2026-04-21 17:02 43.25192 -8.32565 5624 ft 236 kts 58°
2026-04-21 17:02 43.26488 -8.31082 6376 ft 251 kts 39°
2026-04-21 17:03 43.27950 -8.29789 7153 ft 255 kts 39°
2026-04-21 17:03 43.29458 -8.28466 7960 ft 260 kts 39°
2026-04-21 17:03 43.30999 -8.27107 8727 ft 266 kts 40°
2026-04-21 17:03 43.32574 -8.25698 9448 ft 274 kts 42°
2026-04-21 17:04 43.33904 -8.23788 9817 ft 282 kts 66°
2026-04-21 17:04 43.34969 -8.21555 10837 ft 270 kts 68°
2026-04-21 17:04 43.35778 -8.19293 11773 ft 262 kts 81°
2026-04-21 17:04 43.36333 -8.16814 12158 ft 279 kts 90°
2026-04-21 17:05 43.36417 -8.14124 12495 ft 287 kts 107°
2026-04-21 17:05 43.35969 -8.11430 12764 ft 303 kts 115°
2026-04-21 17:05 43.35380 -8.08501 13134 ft 324 kts 114°
2026-04-21 17:05 43.34795 -8.05504 13741 ft 333 kts 114°
2026-04-21 17:06 43.34204 -8.02388 14413 ft 340 kts 113°
2026-04-21 17:06 43.33612 -7.99216 15124 ft 344 kts 112°
2026-04-21 17:06 43.33012 -7.96015 15858 ft 347 kts 112°
2026-04-21 17:06 43.32403 -7.92797 16605 ft 349 kts 112°
2026-04-21 17:07 43.31786 -7.89554 17363 ft 352 kts 112°
2026-04-21 17:07 43.31159 -7.86280 18081 ft 355 kts 112°
2026-04-21 17:07 43.30526 -7.82989 18705 ft 358 kts 112°
2026-04-21 17:07 43.29891 -7.79708 19319 ft 361 kts 112°
2026-04-21 17:08 43.29242 -7.76358 19936 ft 364 kts 112°
2026-04-21 17:08 43.28589 -7.72988 20555 ft 367 kts 112°
2026-04-21 17:08 43.27928 -7.69587 21156 ft 370 kts 112°
2026-04-21 17:08 43.27261 -7.66165 21738 ft 373 kts 112°
2026-04-21 17:09 43.25906 -7.59240 22828 ft 379 kts 112°
2026-04-21 17:09 43.25216 -7.55724 23323 ft 384 kts 112°
2026-04-21 17:09 43.24521 -7.52165 23778 ft 387 kts 112°
2026-04-21 17:10 43.23823 -7.48586 24243 ft 390 kts 112°
2026-04-21 17:10 43.23115 -7.44978 24707 ft 393 kts 112°
2026-04-21 17:10 43.22401 -7.41355 25170 ft 395 kts 112°
2026-04-21 17:10 43.21800 -7.37645 25622 ft 404 kts 104°
2026-04-21 17:11 43.21673 -7.33738 26066 ft 415 kts 94°
2026-04-21 17:11 43.22053 -7.29804 26478 ft 425 kts 86°
2026-04-21 17:11 43.22578 -7.25802 26925 ft 427 kts 86°
2026-04-21 17:11 43.23096 -7.21782 27305 ft 430 kts 86°
2026-04-21 17:12 43.23612 -7.17724 27746 ft 433 kts 86°
2026-04-21 17:12 43.24127 -7.13633 28162 ft 436 kts 86°
2026-04-21 17:12 43.24644 -7.09524 28577 ft 438 kts 87°
2026-04-21 17:12 43.25163 -7.05390 28990 ft 441 kts 86°
2026-04-21 17:13 43.25684 -7.01229 29398 ft 444 kts 86°
2026-04-21 17:13 43.26209 -6.97040 29785 ft 447 kts 86°
2026-04-21 17:13 43.26732 -6.92828 30118 ft 449 kts 86°
2026-04-21 17:13 43.27257 -6.88597 30411 ft 451 kts 86°
2026-04-21 17:14 43.27783 -6.84349 30753 ft 453 kts 86°
2026-04-21 17:14 43.28311 -6.80078 31038 ft 455 kts 86°
2026-04-21 17:14 43.28840 -6.75787 31332 ft 458 kts 86°
2026-04-21 17:14 43.29370 -6.71477 31648 ft 457 kts 86°
2026-04-21 17:15 43.30414 -6.63114 31726 ft 432 kts 87°
2026-04-21 17:15 43.31400 -6.55130 31730 ft 420 kts 88°
2026-04-21 17:16 43.32338 -6.47234 31743 ft 418 kts 88°
2026-04-21 17:16 43.33273 -6.39338 31736 ft 419 kts 87°
2026-04-21 17:17 43.33961 -6.31447 31746 ft 414 kts 93°
2026-04-21 17:17 43.34243 -6.23565 31745 ft 412 kts 94°
2026-04-21 17:18 43.34470 -6.15734 31732 ft 413 kts 94°
2026-04-21 17:18 43.34708 -6.07846 31723 ft 413 kts 94°
2026-04-21 17:19 43.34962 -5.99944 31730 ft 414 kts 94°
2026-04-21 17:19 43.35207 -5.92034 31740 ft 414 kts 94°
2026-04-21 17:20 43.35447 -5.84118 31750 ft 415 kts 94°
2026-04-21 17:20 43.35686 -5.76236 31759 ft 415 kts 94°
2026-04-21 17:21 43.35912 -5.68318 31747 ft 415 kts 94°
2026-04-21 17:21 43.36133 -5.60361 31764 ft 417 kts 94°
2026-04-21 17:22 43.36351 -5.52392 31621 ft 418 kts 94°
2026-04-21 17:22 43.36462 -5.48407 31364 ft 416 kts 94°
2026-04-21 17:22 43.36572 -5.44447 31137 ft 414 kts 94°
2026-04-21 17:23 43.36673 -5.40458 30885 ft 432 kts 94°
2026-04-21 17:23 43.36770 -5.36260 30627 ft 446 kts 93°
2026-04-21 17:23 43.36872 -5.31974 30369 ft 450 kts 92°
2026-04-21 17:23 43.36983 -5.27663 30126 ft 452 kts 92°
2026-04-21 17:24 43.37100 -5.23343 29882 ft 451 kts 92°
2026-04-21 17:24 43.37212 -5.19036 29601 ft 450 kts 92°
2026-04-21 17:24 43.37319 -5.14749 29322 ft 448 kts 92°
2026-04-21 17:24 43.37424 -5.10474 29041 ft 446 kts 92°
2026-04-21 17:25 43.37525 -5.06212 28762 ft 444 kts 92°
2026-04-21 17:25 43.37624 -5.01988 28196 ft 440 kts 92°
2026-04-21 17:25 43.37719 -4.97792 27544 ft 436 kts 92°
2026-04-21 17:25 43.37812 -4.93636 27026 ft 432 kts 92°
2026-04-21 17:26 43.37900 -4.89433 26929 ft 448 kts 92°
2026-04-21 17:26 43.37983 -4.85148 26821 ft 459 kts 92°
2026-04-21 17:26 43.38070 -4.80738 26715 ft 462 kts 92°
2026-04-21 17:26 43.38162 -4.76301 25978 ft 466 kts 91°
2026-04-21 17:27 43.38255 -4.71826 24756 ft 471 kts 91°
2026-04-21 17:27 43.38351 -4.67320 23736 ft 472 kts 91°
2026-04-21 17:27 43.38445 -4.62810 22759 ft 470 kts 91°
2026-04-21 17:27 43.38536 -4.58339 21909 ft 465 kts 91°
2026-04-21 17:28 43.38622 -4.53909 21077 ft 460 kts 91°
2026-04-21 17:28 43.38701 -4.49576 20285 ft 456 kts 92°
2026-04-21 17:28 43.38776 -4.45243 19509 ft 451 kts 92°
2026-04-21 17:28 43.38846 -4.40939 18740 ft 447 kts 92°
2026-04-21 17:29 43.38915 -4.36684 17988 ft 443 kts 92°
2026-04-21 17:29 43.38986 -4.32468 17249 ft 438 kts 92°
2026-04-21 17:29 43.39060 -4.28310 16579 ft 430 kts 92°
2026-04-21 17:29 43.39131 -4.24224 15932 ft 423 kts 92°
2026-04-21 17:30 43.39197 -4.20208 15329 ft 416 kts 92°
2026-04-21 17:30 43.39258 -4.16260 14728 ft 410 kts 92°
2026-04-21 17:30 43.39314 -4.12359 14134 ft 404 kts 92°
2026-04-21 17:30 43.39367 -4.08515 13513 ft 400 kts 92°
2026-04-21 17:31 43.39417 -4.04765 12866 ft 395 kts 92°
2026-04-21 17:31 43.39467 -4.01004 12211 ft 391 kts 92°
2026-04-21 17:31 43.39517 -3.97286 11538 ft 387 kts 92°
2026-04-21 17:31 43.39569 -3.93597 10896 ft 384 kts 92°
2026-04-21 17:32 43.39605 -3.91152 10765 ft 373 kts 92°
2026-04-21 17:32 43.39672 -3.86595 10595 ft 344 kts 92°
2026-04-21 17:32 43.39718 -3.83443 10471 ft 317 kts 92°
2026-04-21 17:32 43.39756 -3.80488 10082 ft 303 kts 92°
2026-04-21 17:33 43.39788 -3.77617 9811 ft 299 kts 92°
2026-04-21 17:33 43.39815 -3.74768 9664 ft 298 kts 92°
2026-04-21 17:33 43.39843 -3.71923 9536 ft 297 kts 92°
2026-04-21 17:33 43.39872 -3.69086 9407 ft 297 kts 92°
2026-04-21 17:34 43.39903 -3.66242 9274 ft 296 kts 92°
2026-04-21 17:34 43.39931 -3.63414 9138 ft 296 kts 92°
2026-04-21 17:34 43.39961 -3.60606 8721 ft 298 kts 91°
2026-04-21 17:34 43.39991 -3.57761 8345 ft 296 kts 91°
2026-04-21 17:35 43.40020 -3.54955 7838 ft 291 kts 91°
2026-04-21 17:35 43.40048 -3.52169 7135 ft 292 kts 91°
2026-04-21 17:35 43.40073 -3.49372 6761 ft 290 kts 91°
2026-04-21 17:35 43.40097 -3.46626 6156 ft 286 kts 91°
2026-04-21 17:36 43.40122 -3.43901 5455 ft 284 kts 91°
2026-04-21 17:36 43.40148 -3.41206 5090 ft 282 kts 91°
2026-04-21 17:36 43.40174 -3.38499 4702 ft 281 kts 91°
2026-04-21 17:36 43.40197 -3.35847 4460 ft 276 kts 91°
2026-04-21 17:37 43.40220 -3.33225 4192 ft 269 kts 91°
2026-04-21 17:37 43.40242 -3.30729 4037 ft 249 kts 91°
2026-04-21 17:37 43.40254 -3.29209 3981 ft 234 kts 92°
2026-04-21 17:37 43.40276 -3.26322 3846 ft 222 kts 92°
2026-04-21 17:38 43.40291 -3.24247 3748 ft 213 kts 92°
2026-04-21 17:38 43.40307 -3.22246 3654 ft 205 kts 92°
2026-04-21 17:38 43.40321 -3.20311 3563 ft 200 kts 92°
2026-04-21 17:38 43.40090 -3.18468 3499 ft 193 kts 117°
2026-04-21 17:39 43.39699 -3.17373 3511 ft 193 kts 120°
2026-04-21 17:39 43.39113 -3.15756 3522 ft 180 kts 120°
2026-04-21 17:39 43.38409 -3.13813 3433 ft 165 kts 120°
2026-04-21 17:39 43.37904 -3.12425 3275 ft 161 kts 119°
2026-04-21 17:40 43.37566 -3.11495 3135 ft 160 kts 119°
2026-04-21 17:40 43.37068 -3.10126 2944 ft 160 kts 120°
2026-04-21 17:40 43.36572 -3.08754 2725 ft 160 kts 120°
2026-04-21 17:40 43.36078 -3.07389 2522 ft 159 kts 120°
2026-04-21 17:41 43.35581 -3.06036 2346 ft 158 kts 119°
2026-04-21 17:41 43.35081 -3.04688 2137 ft 158 kts 118°
2026-04-21 17:41 43.34598 -3.03354 1936 ft 152 kts 118°
2026-04-21 17:41 43.34152 -3.02123 1745 ft 142 kts 117°
2026-04-21 17:42 43.33721 -3.00928 1523 ft 138 kts 116°
2026-04-21 17:42 43.33291 -2.99751 1327 ft 136 kts 115°
2026-04-21 17:42 43.32867 -2.98596 1148 ft 135 kts 115°
2026-04-21 17:42 43.32447 -2.97438 981 ft 135 kts 114°
2026-04-21 17:43 43.32025 -2.96293 781 ft 134 kts 115°
2026-04-21 17:43 43.31605 -2.95151 636 ft 135 kts 115°
2026-04-21 17:43 43.31185 -2.94002 407 ft 134 kts 115°
2026-04-21 17:43 43.30767 -2.92861 236 ft 134 kts 115°
2026-04-21 17:44 43.30367 -2.91757 133 ft 113 kts 117°
2026-04-21 17:44 43.30101 -2.91024 129 ft 46 kts 113°
2026-04-21 17:44 43.30089 -2.90714 132 ft 14 kts 89°
2026-04-21 17:44 43.30118 -2.90611 132 ft 12 kts 45°
2026-04-21 17:45 43.30195 -2.90545 132 ft 14 kts 29°
2026-04-21 17:45 43.30287 -2.90553 132 ft 15 kts 324°
2026-04-21 17:45 43.30363 -2.90613 132 ft 10 kts 11°
2026-04-21 17:45 43.30412 -2.90574 132 ft 0 kts 29°